createdAt,value
2023-02-19T00:01:28.776Z,13.92
2023-02-19T00:03:57.565Z,14.08
2023-02-19T00:06:25.261Z,14.21
2023-02-19T00:08:52.426Z,14.19
2023-02-19T00:11:20.708Z,14.21
2023-02-19T00:13:49.522Z,14.40
2023-02-19T00:16:17.621Z,14.48
2023-02-19T00:18:45.338Z,14.76
2023-02-19T00:21:12.926Z,14.49
2023-02-19T00:23:40.174Z,14.57
2023-02-19T00:26:18.312Z,14.81
2023-02-19T00:28:46.668Z,14.93
2023-02-19T00:31:21.740Z,14.94
2023-02-19T00:33:49.657Z,14.87
2023-02-19T00:36:17.276Z,14.80
2023-02-19T00:38:44.800Z,14.65
2023-02-19T00:41:21.240Z,14.83
2023-02-19T00:43:48.749Z,14.82
2023-02-19T00:46:16.542Z,14.85
2023-02-19T00:48:43.851Z,14.82
2023-02-19T00:51:11.597Z,14.85
2023-02-19T00:53:38.998Z,14.94
2023-02-19T00:56:06.677Z,14.74
2023-02-19T00:58:34.168Z,14.57
2023-02-19T01:01:01.431Z,14.87
2023-02-19T01:03:28.677Z,14.54
2023-02-19T01:05:56.192Z,14.59
2023-02-19T01:08:23.374Z,14.68
2023-02-19T01:10:50.573Z,14.68
2023-02-19T01:13:18.166Z,14.79
2023-02-19T01:15:45.516Z,14.65
2023-02-19T01:18:12.719Z,14.68
2023-02-19T01:20:40.845Z,14.52
2023-02-19T01:23:08.157Z,14.34
2023-02-19T01:25:35.345Z,14.53
2023-02-19T01:28:03.033Z,14.12
2023-02-19T01:30:30.174Z,14.14
2023-02-19T01:32:57.408Z,13.93
2023-02-19T01:35:26.535Z,14.09
2023-02-19T01:37:53.704Z,14.07
2023-02-19T01:40:21.534Z,13.71
2023-02-19T01:42:48.974Z,13.77
2023-02-19T01:45:26.993Z,13.87
2023-02-19T01:48:11.563Z,13.88
2023-02-19T01:50:46.180Z,13.93
2023-02-19T01:53:13.894Z,13.44
2023-02-19T01:55:41.137Z,13.08
2023-02-19T01:58:08.378Z,13.46
2023-02-19T02:00:38.314Z,13.59
2023-02-19T02:03:05.900Z,13.78
2023-02-19T02:05:36.439Z,13.30
2023-02-19T02:08:22.581Z,13.72
2023-02-19T02:10:50.206Z,13.74
2023-02-19T02:13:17.619Z,13.41
2023-02-19T02:15:47.366Z,13.39
2023-02-19T02:18:26.842Z,13.47
2023-02-19T02:21:23.628Z,13.43
2023-02-19T02:23:56.467Z,13.56
2023-02-19T02:26:32.377Z,13.16
2023-02-19T02:29:11.848Z,13.32
2023-02-19T02:31:41.495Z,13.47
2023-02-19T02:34:14.216Z,13.46
2023-02-19T02:36:42.628Z,13.33
2023-02-19T02:39:14.606Z,13.49
2023-02-19T02:41:42.981Z,13.17
2023-02-19T02:44:10.455Z,13.26
2023-02-19T02:46:38.859Z,13.32
2023-02-19T02:49:07.029Z,13.32
2023-02-19T02:51:45.070Z,13.41
2023-02-19T02:54:35.632Z,13.28
2023-02-19T02:57:03.340Z,13.44
2023-02-19T02:59:32.105Z,13.60
2023-02-19T03:02:14.118Z,13.11
2023-02-19T03:05:11.931Z,13.19
2023-02-19T03:07:43.975Z,13.20
2023-02-19T03:10:12.621Z,12.96
2023-02-19T03:12:59.042Z,13.10
2023-02-19T03:15:50.850Z,13.12
2023-02-19T03:18:36.780Z,13.12
2023-02-19T03:21:04.382Z,12.99
2023-02-19T03:23:50.563Z,13.10
2023-02-19T03:26:18.260Z,13.16
2023-02-19T03:29:04.550Z,12.99
2023-02-19T03:31:32.372Z,13.15
2023-02-19T03:34:00.339Z,12.98
2023-02-19T03:36:28.729Z,13.28
2023-02-19T03:39:00.546Z,13.40
2023-02-19T03:41:33.849Z,13.25
2023-02-19T03:44:07.982Z,13.55
2023-02-19T03:46:44.506Z,13.18
2023-02-19T03:49:25.006Z,13.29
2023-02-19T03:52:10.447Z,13.02
2023-02-19T03:54:38.573Z,13.28
2023-02-19T03:57:24.007Z,13.16
2023-02-19T03:59:53.773Z,12.87
2023-02-19T04:02:32.903Z,13.01
2023-02-19T04:05:12.013Z,13.17
2023-02-19T04:07:42.040Z,13.17
2023-02-19T04:10:09.700Z,13.30
2023-02-19T04:12:39.350Z,13.30
2023-02-19T04:15:13.577Z,13.07
2023-02-19T04:17:46.122Z,13.40
2023-02-19T04:20:13.253Z,12.74
2023-02-19T04:22:40.672Z,13.17
2023-02-19T04:25:08.252Z,13.12
2023-02-19T04:27:39.014Z,13.56
2023-02-19T04:30:07.161Z,13.78
2023-02-19T04:32:34.303Z,13.70
2023-02-19T04:35:01.612Z,13.88
2023-02-19T04:37:29.153Z,13.82
2023-02-19T04:39:56.306Z,13.71
2023-02-19T04:42:23.463Z,13.42
2023-02-19T04:44:50.933Z,13.56
2023-02-19T04:47:18.081Z,13.31
2023-02-19T04:49:45.576Z,13.39
2023-02-19T04:52:13.124Z,13.39
2023-02-19T04:54:40.270Z,13.48
2023-02-19T04:57:07.441Z,13.90
2023-02-19T04:59:34.915Z,13.48
2023-02-19T05:02:02.121Z,13.65
2023-02-19T05:04:29.297Z,13.84
2023-02-19T05:06:56.760Z,13.97
2023-02-19T05:09:23.909Z,14.10
2023-02-19T05:11:51.091Z,14.18
2023-02-19T05:14:18.602Z,14.14
2023-02-19T05:16:45.784Z,14.11
2023-02-19T05:19:12.972Z,13.94
2023-02-19T05:21:40.721Z,13.42
2023-02-19T05:24:07.892Z,13.62
2023-02-19T05:26:35.228Z,13.90
2023-02-19T05:29:02.709Z,13.97
2023-02-19T05:31:30.018Z,13.63
2023-02-19T05:33:57.265Z,13.88
2023-02-19T05:36:24.704Z,13.82
2023-02-19T05:38:52.732Z,13.21
2023-02-19T05:41:21.091Z,13.44
2023-02-19T05:43:49.069Z,13.64
2023-02-19T05:46:17.684Z,13.11
2023-02-19T05:48:45.092Z,12.92
2023-02-19T05:51:13.575Z,13.30
2023-02-19T05:53:40.743Z,13.83
2023-02-19T05:56:19.340Z,13.55
2023-02-19T05:58:46.755Z,13.71
2023-02-19T06:01:17.422Z,13.98
2023-02-19T06:03:44.944Z,13.71
2023-02-19T06:06:15.926Z,13.79
2023-02-19T06:08:43.297Z,13.21
2023-02-19T06:11:10.947Z,13.36
2023-02-19T06:13:38.310Z,13.80
2023-02-19T06:16:06.030Z,13.71
2023-02-19T06:18:33.654Z,14.07
2023-02-19T06:21:04.947Z,14.37
2023-02-19T06:23:32.306Z,14.28
2023-02-19T06:26:19.596Z,14.39
2023-02-19T06:28:47.404Z,14.30
2023-02-19T06:31:15.161Z,14.17
2023-02-19T06:33:42.556Z,14.52
2023-02-19T06:36:16.350Z,14.52
2023-02-19T06:38:43.841Z,14.80
2023-02-19T06:41:11.650Z,14.54
2023-02-19T06:43:38.990Z,14.23
2023-02-19T06:46:06.748Z,14.51
2023-02-19T06:48:34.005Z,14.40
2023-02-19T06:51:01.151Z,14.13
2023-02-19T06:53:28.632Z,13.81
2023-02-19T06:55:59.254Z,14.32
2023-02-19T06:58:26.487Z,14.23
2023-02-19T07:00:54.361Z,14.14
2023-02-19T07:03:21.605Z,14.16
2023-02-19T07:05:49.012Z,13.62
2023-02-19T07:08:19.507Z,13.78
2023-02-19T07:10:53.603Z,13.75
2023-02-19T07:13:21.027Z,13.86
2023-02-19T07:15:48.682Z,13.22
2023-02-19T07:18:16.693Z,12.97
2023-02-19T07:20:44.162Z,12.79
2023-02-19T07:23:11.317Z,13.15
2023-02-19T07:25:39.047Z,12.96
2023-02-19T07:28:06.970Z,12.82
2023-02-19T07:30:34.237Z,12.81
2023-02-19T07:33:01.621Z,13.13
2023-02-19T07:35:29.006Z,13.31
2023-02-19T07:37:56.133Z,13.25
2023-02-19T07:40:23.317Z,13.61
2023-02-19T07:42:50.770Z,13.72
2023-02-19T07:45:17.923Z,13.40
2023-02-19T07:47:45.135Z,13.20
2023-02-19T07:50:14.042Z,13.50
2023-02-19T07:52:41.368Z,13.21
2023-02-19T07:55:08.594Z,12.98
2023-02-19T07:57:36.041Z,13.02
2023-02-19T08:00:03.369Z,12.94
2023-02-19T08:03:05.920Z,12.63
2023-02-19T08:05:34.642Z,12.08
2023-02-19T08:08:01.823Z,12.56
2023-02-19T08:10:47.819Z,12.81
2023-02-19T08:13:28.103Z,12.73
2023-02-19T08:16:01.648Z,12.70
2023-02-19T08:18:35.242Z,12.60
2023-02-19T08:21:02.384Z,12.74
2023-02-19T08:23:29.629Z,12.65
2023-02-19T08:25:57.823Z,12.66
2023-02-19T08:28:24.956Z,12.52
2023-02-19T08:30:52.203Z,12.66
2023-02-19T08:33:21.101Z,12.91
2023-02-19T08:35:48.217Z,12.81
2023-02-19T08:38:16.474Z,12.78
2023-02-19T08:40:44.144Z,12.98
2023-02-19T08:43:15.374Z,13.10
2023-02-19T08:45:43.225Z,12.96
2023-02-19T08:48:11.352Z,13.14
2023-02-19T08:50:38.775Z,13.17
2023-02-19T08:53:06.305Z,13.14
2023-02-19T08:55:33.833Z,12.55
2023-02-19T08:58:01.249Z,12.95
2023-02-19T09:00:28.691Z,12.90
2023-02-19T09:02:57.681Z,12.80
2023-02-19T09:05:24.866Z,13.15
2023-02-19T09:07:52.044Z,13.13
2023-02-19T09:10:19.592Z,13.17
2023-02-19T09:12:46.715Z,12.94
2023-02-19T09:15:14.274Z,12.90
2023-02-19T09:17:41.787Z,13.12
2023-02-19T09:20:09.288Z,12.80
2023-02-19T09:22:39.354Z,13.23
2023-02-19T09:25:06.839Z,13.58
2023-02-19T09:27:34.040Z,13.37
2023-02-19T09:30:01.517Z,13.30
2023-02-19T09:32:32.363Z,12.92
2023-02-19T09:34:59.516Z,13.25
2023-02-19T09:37:27.425Z,13.33
2023-02-19T09:39:55.123Z,13.66
2023-02-19T09:42:27.495Z,13.83
2023-02-19T09:44:55.511Z,13.67
2023-02-19T09:47:23.546Z,13.38
2023-02-19T09:49:52.263Z,13.42
2023-02-19T09:52:27.933Z,13.30
2023-02-19T09:54:57.865Z,13.49
2023-02-19T09:57:25.934Z,13.31
2023-02-19T09:59:54.222Z,13.19
2023-02-19T10:02:22.347Z,12.84
2023-02-19T10:04:51.275Z,13.04
2023-02-19T10:07:22.024Z,13.02
2023-02-19T10:09:56.805Z,13.44
2023-02-19T10:12:27.869Z,13.76
2023-02-19T10:15:15.643Z,14.09
2023-02-19T10:17:42.888Z,13.90
2023-02-19T10:20:28.527Z,14.32
2023-02-19T10:23:03.513Z,14.47
2023-02-19T10:25:31.433Z,14.84
2023-02-19T10:27:59.644Z,14.73
2023-02-19T10:30:33.889Z,14.88
2023-02-19T10:33:08.693Z,15.05
2023-02-19T10:35:36.404Z,15.37
2023-02-19T10:38:06.689Z,15.61
2023-02-19T10:40:33.950Z,15.67
2023-02-19T10:43:01.904Z,15.84
2023-02-19T10:45:38.831Z,15.77
2023-02-19T10:48:07.434Z,15.72
2023-02-19T10:50:37.868Z,15.75
2023-02-19T10:53:05.242Z,15.82
2023-02-19T10:55:35.545Z,16.47
2023-02-19T10:58:25.837Z,16.68
2023-02-19T11:01:13.208Z,17.02
2023-02-19T11:03:40.708Z,16.61
2023-02-19T11:06:09.008Z,16.83
2023-02-19T11:08:38.971Z,16.63
2023-02-19T11:11:06.385Z,17.03
2023-02-19T11:13:37.915Z,16.57
2023-02-19T11:16:05.242Z,17.23
2023-02-19T11:18:32.825Z,17.12
2023-02-19T11:21:04.120Z,17.33
2023-02-19T11:23:34.884Z,17.11
2023-02-19T11:26:06.544Z,16.98
2023-02-19T11:28:40.243Z,17.09
2023-02-19T11:31:15.840Z,16.94
2023-02-19T11:33:46.343Z,16.65
2023-02-19T11:36:17.807Z,16.04
2023-02-19T11:38:45.019Z,16.81
2023-02-19T11:41:18.195Z,17.13
2023-02-19T11:43:45.611Z,17.00
2023-02-19T11:46:12.807Z,17.40
2023-02-19T11:48:42.912Z,17.18
2023-02-19T11:51:10.606Z,17.10
2023-02-19T11:53:40.015Z,17.43
2023-02-19T11:56:10.312Z,17.00
2023-02-19T11:58:37.765Z,17.17
2023-02-19T12:01:25.698Z,17.37
2023-02-19T12:03:53.055Z,16.85
2023-02-19T12:06:29.037Z,16.43
2023-02-19T12:09:08.278Z,16.52
2023-02-19T12:11:46.328Z,16.68
2023-02-19T12:14:25.732Z,16.73
2023-02-19T12:17:05.435Z,16.72
2023-02-19T12:19:45.268Z,16.21
2023-02-19T12:22:31.996Z,16.57
2023-02-19T12:25:18.173Z,16.61
2023-02-19T12:28:04.333Z,16.28
2023-02-19T12:30:35.914Z,16.13
2023-02-19T12:33:06.071Z,16.22
2023-02-19T12:35:40.121Z,15.89
2023-02-19T12:38:11.542Z,16.45
2023-02-19T12:40:49.254Z,16.23
2023-02-19T12:43:20.021Z,15.91
2023-02-19T12:45:49.063Z,16.26
2023-02-19T12:48:19.227Z,16.27
2023-02-19T12:50:46.779Z,16.09
2023-02-19T12:53:17.608Z,15.65
2023-02-19T12:55:45.374Z,15.82
2023-02-19T12:58:16.694Z,15.92
2023-02-19T13:00:45.315Z,16.39
2023-02-19T13:03:31.447Z,16.75
2023-02-19T13:06:17.932Z,16.88
2023-02-19T13:09:05.846Z,16.68
2023-02-19T13:11:36.863Z,16.66
2023-02-19T13:14:13.616Z,16.64
2023-02-19T13:16:41.668Z,16.74
2023-02-19T13:19:09.363Z,16.90
2023-02-19T13:21:55.430Z,16.65
2023-02-19T13:24:24.476Z,17.26
2023-02-19T13:26:58.346Z,16.91
2023-02-19T13:29:44.754Z,16.47
2023-02-19T13:32:18.368Z,16.41
2023-02-19T13:34:48.582Z,16.73
2023-02-19T13:37:15.962Z,16.53
2023-02-19T13:39:50.755Z,16.14
2023-02-19T13:42:24.386Z,16.39
2023-02-19T13:44:57.741Z,16.60
2023-02-19T13:47:45.293Z,16.80
2023-02-19T13:50:22.721Z,16.64
2023-02-19T13:52:50.861Z,16.15
2023-02-19T13:55:41.540Z,16.46
2023-02-19T13:58:27.541Z,16.46
2023-02-19T14:00:55.053Z,16.31
2023-02-19T14:03:29.410Z,15.36
2023-02-19T14:06:05.967Z,14.29
2023-02-19T14:08:49.652Z,14.24
2023-02-19T14:11:17.425Z,14.13
2023-02-19T14:13:51.008Z,13.30
2023-02-19T14:16:30.393Z,12.86
2023-02-19T14:18:57.947Z,12.95
2023-02-19T14:21:48.513Z,12.43
2023-02-19T14:24:16.075Z,12.42
2023-02-19T14:26:43.390Z,12.28
2023-02-19T14:29:12.569Z,12.14
2023-02-19T14:31:40.378Z,12.17
2023-02-19T14:34:14.629Z,11.87
2023-02-19T14:36:48.694Z,11.81
2023-02-19T14:39:23.112Z,11.51
2023-02-19T14:41:57.599Z,11.41
2023-02-19T14:44:25.819Z,11.77
2023-02-19T14:46:57.994Z,11.87
2023-02-19T14:49:37.768Z,11.94
2023-02-19T14:52:06.955Z,11.85
2023-02-19T14:54:36.693Z,12.26
2023-02-19T14:57:04.400Z,12.21
2023-02-19T14:59:31.747Z,12.47
2023-02-19T15:02:17.881Z,12.52
2023-02-19T15:04:45.625Z,12.30
2023-02-19T15:07:17.728Z,12.99
2023-02-19T15:09:47.090Z,12.75
2023-02-19T15:12:18.952Z,13.08
2023-02-19T15:14:46.363Z,12.56
2023-02-19T15:17:22.332Z,13.05
2023-02-19T15:19:49.980Z,12.72
2023-02-19T15:22:19.133Z,13.26
2023-02-19T15:24:48.585Z,13.16
2023-02-19T15:27:20.109Z,13.19
2023-02-19T15:29:48.331Z,13.05
2023-02-19T15:32:16.999Z,13.06
2023-02-19T15:34:48.412Z,12.28
2023-02-19T15:37:16.087Z,12.58
2023-02-19T15:39:47.817Z,12.66
2023-02-19T15:42:16.825Z,12.80
2023-02-19T15:44:44.377Z,12.80
2023-02-19T15:47:14.872Z,12.93
2023-02-19T15:49:47.013Z,12.61
2023-02-19T15:52:20.571Z,12.82
2023-02-19T15:55:03.046Z,12.90
2023-02-19T15:57:32.405Z,12.57
2023-02-19T16:00:05.686Z,12.96
2023-02-19T16:02:39.477Z,12.77
2023-02-19T16:05:15.613Z,12.53
2023-02-19T16:07:43.745Z,12.17
2023-02-19T16:10:24.901Z,12.24
2023-02-19T16:12:56.120Z,12.18
2023-02-19T16:15:24.080Z,12.13
2023-02-19T16:17:51.372Z,12.49
2023-02-19T16:20:22.719Z,12.35
2023-02-19T16:22:50.741Z,11.87
2023-02-19T16:25:25.637Z,11.96
2023-02-19T16:27:53.271Z,11.89
2023-02-19T16:30:26.663Z,12.05
2023-02-19T16:33:13.111Z,12.19
2023-02-19T16:35:40.423Z,12.10
2023-02-19T16:38:16.010Z,11.89
2023-02-19T16:40:43.260Z,12.08
2023-02-19T16:43:13.650Z,11.78
2023-02-19T16:45:41.407Z,12.30
2023-02-19T16:48:08.933Z,12.31
2023-02-19T16:50:36.552Z,11.86
2023-02-19T16:53:04.057Z,12.24
2023-02-19T16:55:32.660Z,11.83
2023-02-19T16:58:00.477Z,12.21
2023-02-19T17:00:28.886Z,11.91
2023-02-19T17:02:57.455Z,11.96
2023-02-19T17:05:25.948Z,12.52
2023-02-19T17:07:53.390Z,12.34
2023-02-19T17:10:24.674Z,12.88
2023-02-19T17:12:52.577Z,11.93
2023-02-19T17:15:19.995Z,12.53
2023-02-19T17:17:47.361Z,12.11
2023-02-19T17:20:17.920Z,11.92
2023-02-19T17:22:45.270Z,12.12
2023-02-19T17:25:13.323Z,11.47
2023-02-19T17:27:41.398Z,11.13
2023-02-19T17:30:12.476Z,11.34
2023-02-19T17:32:39.831Z,11.45
2023-02-19T17:35:07.568Z,11.31
2023-02-19T17:37:34.787Z,11.26
2023-02-19T17:40:02.370Z,11.18
2023-02-19T17:42:31.146Z,11.21
2023-02-19T17:44:58.483Z,11.09
2023-02-19T17:47:25.804Z,11.16
2023-02-19T17:49:53.411Z,10.99
2023-02-19T17:52:20.830Z,10.95
2023-02-19T17:54:48.225Z,11.05
2023-02-19T17:57:15.910Z,10.79
2023-02-19T17:59:43.390Z,10.99
2023-02-19T18:02:12.249Z,10.89
2023-02-19T18:04:41.178Z,10.71
2023-02-19T18:07:08.888Z,10.70
2023-02-19T18:09:36.077Z,10.78
2023-02-19T18:12:03.909Z,10.47
2023-02-19T18:14:31.306Z,10.65
2023-02-19T18:16:58.805Z,10.86
2023-02-19T18:19:26.425Z,10.84
2023-02-19T18:21:53.823Z,10.73
2023-02-19T18:24:21.465Z,10.77
2023-02-19T18:26:49.142Z,10.12
2023-02-19T18:29:18.530Z,10.75
2023-02-19T18:31:47.030Z,10.43
2023-02-19T18:34:18.376Z,10.68
2023-02-19T18:36:46.377Z,10.61
2023-02-19T18:39:13.738Z,10.83
2023-02-19T18:41:41.393Z,10.36
2023-02-19T18:44:08.877Z,10.53
2023-02-19T18:46:36.022Z,10.73
2023-02-19T18:49:03.690Z,10.51
2023-02-19T18:51:30.879Z,10.50
2023-02-19T18:53:58.468Z,10.67
2023-02-19T18:56:26.106Z,10.37
2023-02-19T18:58:53.293Z,10.42
2023-02-19T19:01:23.200Z,10.42
2023-02-19T19:03:50.906Z,10.23
2023-02-19T19:06:18.380Z,10.64
2023-02-19T19:08:45.830Z,10.71
2023-02-19T19:11:13.676Z,10.51
2023-02-19T19:13:41.120Z,10.34
2023-02-19T19:16:08.495Z,10.53
2023-02-19T19:18:38.221Z,10.47
2023-02-19T19:21:05.991Z,10.45
2023-02-19T19:23:33.370Z,10.49
2023-02-19T19:26:06.715Z,10.92
2023-02-19T19:28:36.009Z,10.87
2023-02-19T19:31:03.712Z,10.70
2023-02-19T19:33:31.085Z,11.01
2023-02-19T19:35:58.496Z,10.07
2023-02-19T19:38:27.126Z,10.33
2023-02-19T19:40:54.829Z,10.51
2023-02-19T19:43:22.229Z,10.61
2023-02-19T19:45:50.452Z,10.70
2023-02-19T19:48:17.839Z,11.28
2023-02-19T19:50:45.250Z,11.63
2023-02-19T19:53:12.845Z,11.28
2023-02-19T19:55:40.226Z,10.77
2023-02-19T19:58:07.674Z,11.25
2023-02-19T20:00:35.260Z,10.73
2023-02-19T20:03:02.954Z,11.05
2023-02-19T20:05:30.400Z,11.29
2023-02-19T20:07:57.792Z,10.69
2023-02-19T20:10:25.495Z,10.48
2023-02-19T20:12:53.943Z,10.88
2023-02-19T20:15:22.049Z,10.48
2023-02-19T20:17:49.935Z,10.10
2023-02-19T20:20:18.004Z,9.57
2023-02-19T20:22:45.361Z,9.48
2023-02-19T20:25:13.067Z,9.19
2023-02-19T20:27:41.685Z,9.58
2023-02-19T20:30:11.507Z,9.67
2023-02-19T20:32:39.218Z,9.46
2023-02-19T20:35:06.696Z,9.20
2023-02-19T20:37:34.190Z,8.94
2023-02-19T20:40:02.041Z,9.52
2023-02-19T20:42:29.317Z,9.28
2023-02-19T20:44:57.695Z,9.33
2023-02-19T20:47:25.304Z,9.69
2023-02-19T20:49:52.771Z,9.38
2023-02-19T20:52:24.763Z,8.97
2023-02-19T20:54:55.992Z,8.50
2023-02-19T20:57:23.634Z,8.57
2023-02-19T20:59:50.925Z,8.13
2023-02-19T21:02:24.571Z,8.10
2023-02-19T21:04:52.140Z,8.03
2023-02-19T21:07:20.022Z,8.21
2023-02-19T21:09:47.368Z,8.42
2023-02-19T21:12:14.678Z,8.45
2023-02-19T21:14:42.303Z,8.15
2023-02-19T21:17:10.109Z,8.27
2023-02-19T21:19:37.284Z,8.13
2023-02-19T21:22:04.951Z,7.91
2023-02-19T21:24:32.828Z,7.97
2023-02-19T21:27:00.191Z,7.88
2023-02-19T21:29:27.849Z,7.60
2023-02-19T21:31:55.682Z,7.31
2023-02-19T21:34:24.281Z,7.50
2023-02-19T21:36:52.264Z,7.81
2023-02-19T21:39:20.236Z,7.65
2023-02-19T21:41:47.504Z,7.24
2023-02-19T21:44:15.106Z,7.31
2023-02-19T21:46:42.418Z,7.45
2023-02-19T21:49:09.734Z,7.91
2023-02-19T21:51:37.985Z,7.37
2023-02-19T21:54:06.071Z,7.73
2023-02-19T21:56:35.874Z,8.51
2023-02-19T21:59:03.812Z,7.83
2023-02-19T22:01:32.596Z,7.60
2023-02-19T22:04:00.411Z,7.32
2023-02-19T22:06:29.201Z,7.62
2023-02-19T22:08:56.890Z,7.69
2023-02-19T22:11:24.283Z,7.59
2023-02-19T22:13:51.555Z,7.50
2023-02-19T22:16:19.211Z,7.73
2023-02-19T22:18:50.367Z,7.55
2023-02-19T22:21:17.802Z,7.50
2023-02-19T22:23:48.283Z,7.32
2023-02-19T22:26:19.695Z,7.61
2023-02-19T22:28:47.854Z,7.88
2023-02-19T22:31:16.075Z,7.86
2023-02-19T22:33:43.812Z,8.12
2023-02-19T22:36:15.163Z,7.70
2023-02-19T22:38:42.610Z,7.72
2023-02-19T22:41:10.091Z,7.72
2023-02-19T22:43:37.259Z,7.40
2023-02-19T22:46:04.668Z,8.00
2023-02-19T22:48:32.147Z,8.27
2023-02-19T22:50:59.307Z,7.19
2023-02-19T22:53:26.544Z,7.17
2023-02-19T22:55:53.954Z,7.77
2023-02-19T22:58:21.083Z,8.19
2023-02-19T23:00:48.355Z,7.68
2023-02-19T23:03:15.893Z,8.16
2023-02-19T23:05:43.117Z,7.95
2023-02-19T23:08:10.362Z,7.75
2023-02-19T23:10:37.802Z,7.86
2023-02-19T23:13:04.928Z,7.99
2023-02-19T23:15:32.174Z,8.21
2023-02-19T23:17:59.998Z,7.73
2023-02-19T23:20:27.149Z,7.82
2023-02-19T23:22:54.361Z,7.31
2023-02-19T23:25:21.750Z,7.26
2023-02-19T23:27:48.870Z,7.38
2023-02-19T23:30:17.067Z,7.04
2023-02-19T23:32:44.552Z,7.64
2023-02-19T23:35:11.726Z,7.33
2023-02-19T23:37:38.956Z,7.58
2023-02-19T23:40:06.616Z,7.56
2023-02-19T23:42:33.742Z,7.80
2023-02-19T23:45:00.930Z,7.82
2023-02-19T23:47:30.627Z,7.90
2023-02-19T23:49:57.948Z,7.72
2023-02-19T23:52:25.188Z,7.59
2023-02-19T23:54:52.577Z,7.93
2023-02-19T23:57:19.779Z,8.24
2023-02-19T23:59:49.134Z,7.79
